Time;durP1;ratioP1;P1;durP2;ratioP2;P2;SDS_P1;SDS_P2;PMS_P1;PMS_P2;Temp;Humidity;BMP_temperature;BMP_pressure;BME280_temperature;BME280_humidity;BME280_pressure;Samples;Min_cycle;Max_cycle;Signal;HPM_P1;HPM_P2
2024/02/16 00:00:51;;;;;;;93.20;44.30;;;;;;;0.95;100.00;99608.63;272481;1273;22207;-84
2024/02/16 00:07:52;;;;;;;82.50;40.50;;;;;;;0.89;100.00;99609.70;270846;1274;22575;-83
2024/02/16 00:14:34;;;;;;;85.00;44.70;;;;;;;0.86;100.00;99613.52;272080;1274;22187;-83
2024/02/16 00:20:57;;;;;;;79.30;39.50;;;;;;;0.82;100.00;99614.80;271949;1274;22415;-83
2024/02/16 00:27:00;;;;;;;89.20;44.00;;;;;;;0.78;100.00;99619.60;272301;1275;22205;-83
2024/02/16 00:33:02;;;;;;;96.40;47.80;;;;;;;0.75;100.00;99613.45;272594;1274;22439;-84
2024/02/16 00:39:05;;;;;;;79.00;39.60;;;;;;;0.66;100.00;99611.50;272089;1274;22476;-83
2024/02/16 00:45:08;;;;;;;72.20;38.90;;;;;;;0.58;100.00;99608.78;272150;1273;22412;-84
2024/02/16 00:51:32;;;;;;;72.30;38.40;;;;;;;0.53;100.00;99601.38;272162;1274;22356;-83
2024/02/16 00:58:01;;;;;;;73.80;36.30;;;;;;;0.55;100.00;99596.23;272623;1274;22193;-84
2024/02/16 01:04:43;;;;;;;75.20;37.70;;;;;;;0.58;100.00;99592.77;272488;1274;22381;-84
2024/02/16 01:11:39;;;;;;;82.10;38.10;;;;;;;0.52;100.00;99586.52;272624;1275;22367;-83
2024/02/16 01:18:05;;;;;;;65.90;33.80;;;;;;;0.45;100.00;99582.05;270809;1271;22202;-83
2024/02/16 01:24:47;;;;;;;71.20;37.10;;;;;;;0.37;100.00;99578.70;272149;1271;22208;-84
2024/02/16 01:30:56;;;;;;;72.40;36.40;;;;;;;0.32;100.00;99576.89;272612;1279;22296;-83
2024/02/16 01:37:38;;;;;;;69.60;36.90;;;;;;;0.28;100.00;99572.48;272662;1275;22202;-83
2024/02/16 01:44:47;;;;;;;64.10;33.70;;;;;;;0.27;100.00;99569.42;272710;1263;22203;-83
2024/02/16 01:51:10;;;;;;;65.70;35.00;;;;;;;0.24;100.00;99567.59;270231;1274;23439;-84
2024/02/16 01:57:12;;;;;;;69.00;35.20;;;;;;;0.18;100.00;99563.33;270472;1274;23444;-83
2024/02/16 02:03:52;;;;;;;75.20;36.60;;;;;;;0.09;100.00;99555.54;272036;1274;22432;-84
2024/02/16 02:10:16;;;;;;;65.00;33.70;;;;;;;0.10;100.00;99551.45;272676;1274;22256;-83
2024/02/16 02:16:19;;;;;;;60.10;28.70;;;;;;;0.09;100.00;99549.73;272097;1271;22183;-84
2024/02/16 02:22:26;;;;;;;57.60;31.00;;;;;;;0.03;100.00;99552.48;272165;1273;22291;-83
2024/02/16 02:29:08;;;;;;;60.20;31.60;;;;;;;-0.05;100.00;99543.42;272678;1275;22322;-84
2024/02/16 02:58:14;;;;;;;73.30;36.90;;;;;;;-0.18;100.00;99550.58;273609;1276;22375;-85
2024/02/16 03:04:41;;;;;;;63.10;31.20;;;;;;;-0.24;100.00;99552.77;273748;1270;22182;-85
2024/02/16 03:11:34;;;;;;;49.80;26.60;;;;;;;-0.30;100.00;99557.85;273444;1277;23041;-86
2024/02/16 03:18:41;;;;;;;58.60;28.00;;;;;;;-0.30;100.00;99559.69;273665;1270;22354;-85
2024/02/16 03:25:10;;;;;;;67.30;32.30;;;;;;;-0.32;100.00;99561.38;273890;1276;22179;-85
2024/02/16 03:31:36;;;;;;;56.00;26.90;;;;;;;-0.32;100.00;99557.08;273715;1272;22832;-85
2024/02/16 03:38:06;;;;;;;56.90;27.80;;;;;;;-0.36;100.00;99554.92;273722;1273;22235;-85
2024/02/16 03:44:26;;;;;;;84.20;35.50;;;;;;;-0.39;100.00;99550.27;273671;1269;22409;-86
2024/02/16 03:50:53;;;;;;;79.90;29.60;;;;;;;-0.44;100.00;99547.28;273604;1270;22236;-85
2024/02/16 03:56:55;;;;;;;78.60;33.10;;;;;;;-0.45;100.00;99547.45;272878;1270;24260;-86
2024/02/16 04:02:57;;;;;;;68.20;30.80;;;;;;;-0.45;100.00;99555.36;270709;1270;22553;-85
2024/02/16 04:09:01;;;;;;;79.90;32.80;;;;;;;-0.48;100.00;99555.09;270298;1269;23181;-87
2024/02/16 04:16:06;;;;;;;80.30;31.50;;;;;;;-0.50;100.00;99553.50;268580;1278;25356;-85
2024/02/16 04:22:37;;;;;;;71.50;30.50;;;;;;;-0.48;100.00;99553.46;270623;1270;22608;-87
2024/02/16 04:30:05;;;;;;;75.80;33.60;;;;;;;-0.52;100.00;99554.00;272269;1273;22427;-86
2024/02/16 04:36:07;;;;;;;78.50;34.50;;;;;;;-0.58;100.00;99558.38;270127;1273;22565;-86
2024/02/16 04:42:12;;;;;;;70.80;33.00;;;;;;;-0.58;100.00;99562.74;272682;1277;22266;-87
2024/02/16 04:55:51;;;;;;;73.10;37.80;;;;;;;-0.63;100.00;99563.35;272522;1277;22413;-86
2024/02/16 05:17:50;;;;;;;78.20;41.80;;;;;;;-0.69;100.00;99563.20;273706;1270;23037;-87
2024/02/16 05:24:20;;;;;;;83.80;41.90;;;;;;;-0.73;100.00;99560.35;273444;1277;22243;-87
2024/02/16 05:38:47;;;;;;;68.50;34.60;;;;;;;-0.68;100.00;99556.48;273795;1276;22187;-86
2024/02/16 05:45:19;;;;;;;65.50;35.40;;;;;;;-0.68;100.00;99566.95;270794;1269;22544;-87
2024/02/16 05:51:21;;;;;;;77.20;35.90;;;;;;;-0.67;100.00;99567.38;271300;1269;22282;-86
2024/02/16 05:58:29;;;;;;;80.10;40.30;;;;;;;-0.66;100.00;99568.50;273277;1269;23374;-86
2024/02/16 06:04:53;;;;;;;74.70;40.10;;;;;;;-0.70;100.00;99559.77;273539;1277;23004;-86
2024/02/16 06:11:35;;;;;;;76.20;36.40;;;;;;;-0.65;100.00;99562.46;273488;1275;22260;-86
2024/02/16 06:18:19;;;;;;;72.60;35.80;;;;;;;-0.65;100.00;99574.98;273776;1270;22238;-87
2024/02/16 06:32:35;;;;;;;;;;;;;;;;;;;;;
2024/02/16 06:39:31;;;;;;;151.80;74.10;;;;;;;0.08;100.00;99590.14;272068;1285;22303;-87
2024/02/16 06:45:58;;;;;;;133.20;66.40;;;;;;;0.32;100.00;99590.35;272584;1276;22403;-87
2024/02/16 06:52:05;;;;;;;110.60;55.40;;;;;;;0.54;100.00;99591.72;273243;1270;23510;-86
2024/02/16 06:59:04;;;;;;;116.40;61.60;;;;;;;0.80;100.00;99590.41;272712;1256;23464;-86
2024/02/16 07:05:06;;;;;;;114.20;60.60;;;;;;;1.12;100.00;99586.19;273554;1275;22212;-86
2024/02/16 07:11:39;;;;;;;127.00;65.00;;;;;;;1.38;100.00;99585.30;273698;1275;22318;-87
2024/02/16 07:26:03;;;;;;;111.90;61.80;;;;;;;2.17;100.00;99584.12;273591;1277;22208;-87
2024/02/16 07:52:09;;;;;;;120.70;65.00;;;;;;;3.58;100.00;99573.14;260969;1295;5746481;-93
2024/02/16 07:58:23;;;;;;;121.20;65.60;;;;;;;4.49;100.00;99566.44;269230;1281;22620;-91
2024/02/16 08:04:31;;;;;;;107.10;59.10;;;;;;;4.95;100.00;99567.33;270390;1273;22567;-92
2024/02/16 08:10:37;;;;;;;119.70;59.80;;;;;;;5.28;100.00;99566.08;270817;1269;22575;-92
2024/02/16 08:17:02;;;;;;;107.80;57.60;;;;;;;5.40;100.00;99572.16;270406;1270;22569;-92
2024/02/16 08:23:10;;;;;;;103.20;56.70;;;;;;;5.47;100.00;99577.27;270971;1269;22604;-93
2024/02/16 08:29:20;;;;;;;100.20;54.40;;;;;;;5.82;100.00;99577.34;270268;1269;25316;-91
2024/02/16 08:35:23;;;;;;;95.20;51.80;;;;;;;6.29;100.00;99579.79;270659;1270;22718;-91
2024/02/16 08:41:37;;;;;;;87.90;48.00;;;;;;;6.75;100.00;99577.86;270538;1269;22540;-92
2024/02/16 08:47:57;;;;;;;86.80;46.70;;;;;;;7.29;100.00;99574.06;270474;1270;25102;-93
2024/02/16 08:54:19;;;;;;;80.90;47.10;;;;;;;7.79;100.00;99567.27;269996;1270;23847;-93
2024/02/16 09:00:26;;;;;;;77.00;43.30;;;;;;;8.32;100.00;99565.00;269614;1270;24362;-93
2024/02/16 09:06:34;;;;;;;68.30;40.70;;;;;;;9.05;100.00;99560.84;269737;1270;22785;-94
2024/02/16 09:12:39;;;;;;;64.70;40.10;;;;;;;9.80;100.00;99563.72;269694;1262;22546;-94
2024/02/16 09:18:51;;;;;;;67.70;38.50;;;;;;;10.38;100.00;99557.99;270262;1262;22650;-93
2024/02/16 10:20:27;;;;;;;38.20;20.50;;;;;;;15.64;99.23;99538.40;272228;1278;22337;-92
2024/02/16 10:49:39;;;;;;;33.10;17.70;;;;;;;17.35;92.10;99512.14;259018;1297;8681243;-92
2024/02/16 10:56:06;;;;;;;26.00;16.10;;;;;;;17.34;87.20;99502.03;269080;1280;22562;-94
2024/02/16 11:02:19;;;;;;;20.90;14.10;;;;;;;17.28;85.68;99497.02;271472;1272;22345;-95
2024/02/16 11:09:01;;;;;;;24.90;13.90;;;;;;;17.10;84.80;99484.11;272763;1272;22805;-91
2024/02/16 11:15:08;;;;;;;19.20;12.10;;;;;;;16.96;84.61;99478.59;272394;1262;83824;-91
2024/02/16 11:22:04;;;;;;;22.90;11.40;;;;;;;16.91;83.02;99464.24;272793;1278;23205;-93
2024/02/16 11:45:38;;;;;;;18.00;10.00;;;;;;;17.41;78.90;99448.60;269756;1276;23152;-92
2024/02/16 12:01:36;;;;;;;16.10;11.30;;;;;;;16.79;75.87;99437.63;268872;1287;22248;-92
2024/02/16 12:09:08;;;;;;;18.50;11.20;;;;;;;16.38;75.24;99439.66;271747;1280;22228;-90
2024/02/16 12:25:09;;;;;;;17.40;10.70;;;;;;;15.88;73.38;99427.34;270455;1286;22250;-90
2024/02/16 12:48:20;;;;;;;25.60;11.60;;;;;;;15.28;71.30;99417.98;270513;1289;22276;-90
2024/02/16 13:19:29;;;;;;;17.90;9.80;;;;;;;15.02;70.95;99403.74;269203;1285;22551;-92
2024/02/16 13:26:56;;;;;;;21.30;9.90;;;;;;;15.09;70.95;99401.28;269717;1294;22439;-90
2024/02/16 13:34:50;;;;;;;15.00;8.40;;;;;;;15.10;70.82;99398.52;267928;1299;24266;-91
2024/02/16 14:06:04;;;;;;;10.20;5.70;;;;;;;14.81;70.84;99393.34;268506;1302;22310;-90
2024/02/16 14:14:16;;;;;;;9.30;6.00;;;;;;;14.68;70.72;99389.86;268065;1296;22460;-91
2024/02/16 14:21:54;;;;;;;11.40;5.20;;;;;;;14.58;71.04;99381.73;266909;1302;23153;-89
2024/02/16 14:28:55;;;;;;;10.80;6.40;;;;;;;14.47;71.00;99379.29;266656;1302;22364;-90
2024/02/16 14:35:58;;;;;;;14.40;7.50;;;;;;;14.36;71.37;99374.39;269792;1290;22227;-90
2024/02/16 14:42:16;;;;;;;11.20;5.90;;;;;;;14.24;71.47;99370.73;271176;1277;22234;-90
2024/02/16 14:48:18;;;;;;;12.80;6.50;;;;;;;14.13;71.78;99368.17;272749;1279;23534;-91
2024/02/16 14:54:25;;;;;;;16.00;6.80;;;;;;;13.96;72.19;99370.31;271782;1272;22569;-89
2024/02/16 15:00:45;;;;;;;10.20;6.00;;;;;;;13.77;72.46;99367.48;269522;1266;22564;-91
2024/02/16 15:06:56;;;;;;;10.40;5.80;;;;;;;13.64;72.86;99364.05;272873;1274;22401;-91
2024/02/16 15:12:58;;;;;;;11.10;5.50;;;;;;;13.54;73.07;99365.17;272892;1270;22342;-90
2024/02/16 15:19:23;;;;;;;14.00;6.50;;;;;;;13.40;73.38;99359.29;273727;1277;23863;-91
2024/02/16 15:26:11;;;;;;;13.90;6.10;;;;;;;13.23;73.76;99357.30;273496;1277;23536;-90
2024/02/16 15:32:20;;;;;;;36.60;13.80;;;;;;;13.03;74.23;99351.35;273169;1274;22675;-91
